Terminal Aerodrome Forecast
Issued by NWS Austin/San Antonio, TX

Home | Current Version | Previous Version | Text Only | Print | Product List | Glossary On
Versions: 1 2 3 4 5 6 7 8 9 10 11 12 13 14 15 16 17 18 19 20 21 22 23
000
FTUS44 KEWX 230600 AAA
TAFDRT
TAF AMD
KDRT 230639Z 2307/2406 VRB03KT 3SM BR SCT050
      TEMPO 2307/2309 1SM BR
     FM230900 VRB03KT 4SM BR BKN060
     FM231100 11004KT 6SM BR OVC015
     FM231700 14006KT P6SM BKN025
     FM231800 16006KT P6SM OVC035=

USA.gov is the U.S. government's official web portal to all federal, state and local government web resources and services.